Zoetermeer, Netherlands
Current Conditions -  °F | °C
As of 2:55 PM on Saturday 01 Nov 2014 (Local Time) from EHRD Reporting Station
Few Clouds Few Clouds  
Wind Chill: 64°   Ceiling: Unl
Heat Index: 64°   Visibility: 6mi
Dew Point: 57°   Wind: 10mph
Humidity: 77%   Direction: 190°S
Pressure: 30"   Gusts: NA
Location:  52.06°N, 4.49°E
Report Text: EHRD 011355Z AUTO 19009KT 9999 FEW018 18/14 Q1016 NOSIG
Loading
Personal Weather Stations






























Interactive Weather Map
Tropical Storm Tracking
New forecast layout! Learn more

10-Day Weather Forecast

Advertisements
Track Severe Weather on mobile